Time;durP1;ratioP1;P1;durP2;ratioP2;P2;SDS_P1;SDS_P2;PMS_P1;PMS_P2;Temp;Humidity;BMP_temperature;BMP_pressure;BME280_temperature;BME280_humidity;BME280_pressure;Samples;Min_cycle;Max_cycle;Signal;HPM_P1;HPM_P2
2023/01/09 00:01:39;;;;;;;19.73;8.70;;;7.30;99.50;;;;;;4995365;28;87953;-74
2023/01/09 00:04:06;;;;;;;19.27;8.77;;;7.30;99.90;;;;;;4997477;28;87510;-75
2023/01/09 00:06:32;;;;;;;17.70;9.73;;;7.20;99.90;;;;;;4995404;28;87887;-73
2023/01/09 00:08:57;;;;;;;18.92;9.27;;;7.20;99.90;;;;;;4995068;28;87739;-76
2023/01/09 00:11:23;;;;;;;18.75;9.75;;;7.10;99.90;;;;;;4997438;28;86860;-76
2023/01/09 00:13:49;;;;;;;20.73;10.32;;;7.00;99.90;;;;;;4997220;28;89021;-75
2023/01/09 00:16:15;;;;;;;17.45;9.85;;;7.00;99.90;;;;;;4998911;28;87276;-77
2023/01/09 00:18:41;;;;;;;15.75;9.60;;;7.00;99.90;;;;;;4994460;28;89100;-77
2023/01/09 00:21:09;;;;;;;17.98;9.90;;;7.00;99.90;;;;;;4995281;28;88297;-77
2023/01/09 00:23:35;;;;;;;18.25;9.35;;;7.00;99.90;;;;;;4997240;28;87940;-76
2023/01/09 00:26:06;;;;;;;17.20;9.57;;;7.00;99.90;;;;;;4996704;28;87597;-77
2023/01/09 00:28:33;;;;;;;17.85;8.88;;;7.10;99.90;;;;;;4991516;28;88221;-76
2023/01/09 00:31:00;;;;;;;18.20;9.15;;;7.20;99.90;;;;;;4995967;28;87544;-74
2023/01/09 00:33:32;;;;;;;17.63;9.32;;;7.30;99.90;;;;;;4995697;28;87729;-76
2023/01/09 00:35:59;;;;;;;17.13;9.10;;;7.30;99.90;;;;;;4994391;28;86660;-76
2023/01/09 00:38:27;;;;;;;19.27;9.50;;;7.30;99.90;;;;;;4992535;28;88437;-75
2023/01/09 00:40:54;;;;;;;16.02;9.35;;;7.40;99.90;;;;;;4995418;28;87806;-77
2023/01/09 00:43:24;;;;;;;17.73;8.98;;;7.40;99.90;;;;;;4994153;28;90470;-77
2023/01/09 00:45:50;;;;;;;17.17;8.98;;;7.50;99.90;;;;;;4994388;28;88612;-77
2023/01/09 00:48:28;;;;;;;17.67;9.60;;;7.50;99.90;;;;;;4994043;28;88266;-76
2023/01/09 00:50:56;;;;;;;18.80;9.85;;;7.50;99.90;;;;;;5001832;28;88466;-75
2023/01/09 00:53:26;;;;;;;19.00;9.05;;;7.40;99.90;;;;;;4994245;28;88142;-75
2023/01/09 00:55:53;;;;;;;20.73;9.55;;;7.40;99.90;;;;;;4996563;28;87539;-76
2023/01/09 00:58:19;;;;;;;18.88;9.45;;;7.40;99.90;;;;;;4992798;28;88372;-74
2023/01/09 01:00:44;;;;;;;19.40;9.13;;;7.40;99.90;;;;;;4997114;28;87925;-75
2023/01/09 01:03:10;;;;;;;17.08;8.77;;;7.30;99.90;;;;;;4994954;28;87512;-75
2023/01/09 01:08:20;;;;;;;10.73;5.57;;;7.40;99.90;;;;;;4993149;28;89000;-76
2023/01/09 01:10:47;;;;;;;12.68;6.78;;;7.40;99.90;;;;;;4995385;28;88932;-75
2023/01/09 01:13:13;;;;;;;13.25;7.10;;;7.40;99.90;;;;;;4995362;28;87327;-76
2023/01/09 01:15:43;;;;;;;15.52;7.95;;;7.40;99.90;;;;;;5000407;28;87572;-76
2023/01/09 01:18:10;;;;;;;17.58;8.00;;;7.40;99.90;;;;;;4997466;28;87680;-76
2023/01/09 01:20:38;;;;;;;17.08;8.55;;;7.40;99.90;;;;;;4998856;28;87660;-76
2023/01/09 01:23:04;;;;;;;16.20;8.80;;;7.30;99.90;;;;;;5001368;28;86970;-75
2023/01/09 01:25:29;;;;;;;12.48;7.28;;;7.40;99.90;;;;;;4999918;28;86635;-75
2023/01/09 01:27:55;;;;;;;16.05;8.82;;;7.40;99.90;;;;;;4996380;28;88754;-77
2023/01/09 01:30:21;;;;;;;16.70;8.95;;;7.40;99.90;;;;;;5000122;28;87779;-76
2023/01/09 01:32:46;;;;;;;14.07;7.40;;;7.50;99.90;;;;;;4999429;28;88014;-76
2023/01/09 01:35:12;;;;;;;14.57;7.65;;;7.50;99.90;;;;;;5000234;28;87527;-76
2023/01/09 01:37:38;;;;;;;16.38;8.23;;;7.50;99.90;;;;;;4996212;28;87240;-75
2023/01/09 01:40:06;;;;;;;16.88;8.52;;;7.40;99.90;;;;;;4998279;28;87891;-75
2023/01/09 01:42:32;;;;;;;14.60;8.02;;;7.50;99.90;;;;;;4998224;28;87500;-75
2023/01/09 01:45:06;;;;;;;16.00;7.80;;;7.50;99.90;;;;;;4999472;28;87321;-75
2023/01/09 01:47:46;;;;;;;12.15;6.85;;;7.50;99.90;;;;;;4996806;28;87607;-74
2023/01/09 01:50:44;;;;;;;14.13;8.35;;;7.60;99.90;;;;;;4999258;28;87950;-73
2023/01/09 01:53:25;;;;;;;16.00;8.23;;;7.60;99.90;;;;;;4994366;28;87790;-75
2023/01/09 01:55:57;;;;;;;16.92;8.30;;;7.60;99.90;;;;;;4996738;28;87016;-75
2023/01/09 01:58:22;;;;;;;13.77;8.05;;;7.60;99.90;;;;;;4998513;28;89909;-75
2023/01/09 02:00:48;;;;;;;15.40;9.10;;;7.60;99.90;;;;;;4998267;28;87604;-74
2023/01/09 02:03:17;;;;;;;15.05;8.23;;;7.50;99.90;;;;;;4999100;28;87196;-74
2023/01/09 02:05:43;;;;;;;14.43;8.02;;;7.50;99.90;;;;;;4998599;28;87258;-78
2023/01/09 02:08:10;;;;;;;16.00;9.13;;;7.60;99.90;;;;;;4996556;28;87540;-79
2023/01/09 02:10:38;;;;;;;14.38;7.70;;;7.60;99.90;;;;;;4996934;28;88392;-77
2023/01/09 02:13:05;;;;;;;16.27;8.00;;;7.60;99.90;;;;;;4999231;28;88668;-76
2023/01/09 02:16:07;;;;;;;15.88;8.20;;;7.50;99.90;;;;;;5000188;28;86644;-72
2023/01/09 02:18:41;;;;;;;17.83;9.07;;;7.40;99.90;;;;;;4956544;28;88154;-77
2023/01/09 02:21:07;;;;;;;16.17;8.85;;;7.40;99.90;;;;;;4998056;28;88601;-74
2023/01/09 02:23:54;;;;;;;13.98;7.90;;;7.30;99.90;;;;;;4997730;28;88106;-77
2023/01/09 02:26:25;;;;;;;12.68;7.68;;;7.30;99.90;;;;;;4999007;28;87478;-72
2023/01/09 02:29:05;;;;;;;16.92;9.02;;;7.30;99.90;;;;;;4996444;28;88699;-74
2023/01/09 02:31:49;;;;;;;16.48;9.02;;;7.40;99.90;;;;;;5001358;28;87775;-74
2023/01/09 02:34:37;;;;;;;18.05;9.07;;;7.40;99.90;;;;;;4993795;28;87940;-74
2023/01/09 02:37:31;;;;;;;13.75;8.07;;;7.40;99.90;;;;;;4994750;28;87534;-75
2023/01/09 02:40:25;;;;;;;17.92;8.77;;;7.40;99.90;;;;;;4995639;28;87624;-76
2023/01/09 02:42:53;;;;;;;14.77;8.50;;;7.50;99.90;;;;;;4998804;28;87060;-74
2023/01/09 02:45:19;;;;;;;18.48;9.05;;;7.50;99.90;;;;;;4997727;28;87602;-74
2023/01/09 02:47:45;;;;;;;13.77;8.45;;;7.50;99.90;;;;;;4996007;28;88783;-73
2023/01/09 02:50:42;;;;;;;17.63;8.82;;;7.50;99.90;;;;;;5009140;28;89158;-77
2023/01/09 02:53:31;;;;;;;16.52;7.63;;;7.50;99.90;;;;;;4924162;28;87309;-75
2023/01/09 02:56:19;;;;;;;15.98;8.00;;;7.50;99.90;;;;;;4991621;28;87440;-76
2023/01/09 02:59:07;;;;;;;16.10;6.80;;;7.50;99.90;;;;;;4995773;28;87414;-78
2023/01/09 03:02:12;;;;;;;11.55;5.60;;;7.40;99.90;;;;;;4985425;28;87731;-74
2023/01/09 03:04:54;;;;;;;7.10;3.33;;;7.50;99.90;;;;;;4996145;28;87461;-73
2023/01/09 03:07:45;;;;;;;9.75;4.05;;;7.50;99.90;;;;;;4991342;28;88430;-75
2023/01/09 03:10:22;;;;;;;9.50;2.88;;;7.60;99.90;;;;;;4996640;28;86652;-72
2023/01/09 03:12:51;;;;;;;3.78;0.52;;;7.70;99.90;;;;;;4995671;28;89969;-75
2023/01/09 03:15:20;;;;;;;0.98;0.20;;;7.70;99.90;;;;;;4997062;28;87411;-76
2023/01/09 03:17:49;;;;;;;0.38;0.00;;;7.90;99.90;;;;;;4994139;28;88320;-77
2023/01/09 03:20:20;;;;;;;0.20;0.10;;;8.00;99.90;;;;;;4998116;28;87551;-77
2023/01/09 03:23:06;;;;;;;0.10;0.00;;;8.00;99.00;;;;;;4998877;28;88091;-77
2023/01/09 03:25:32;;;;;;;0.52;0.00;;;8.20;98.20;;;;;;4997150;28;88290;-78
2023/01/09 03:28:07;;;;;;;0.00;0.00;;;8.30;97.70;;;;;;4995683;28;87351;-77
2023/01/09 03:30:35;;;;;;;0.60;0.00;;;8.40;97.40;;;;;;4995070;28;87435;-77
2023/01/09 03:33:00;;;;;;;0.00;0.00;;;8.40;97.10;;;;;;4998949;28;88173;-76
2023/01/09 03:35:27;;;;;;;0.10;0.10;;;8.40;96.80;;;;;;4998279;28;87439;-77
2023/01/09 03:37:53;;;;;;;0.00;0.00;;;8.40;96.40;;;;;;4995060;28;87292;-76
2023/01/09 03:40:19;;;;;;;0.00;0.00;;;8.40;96.40;;;;;;4998044;28;87125;-74
2023/01/09 03:42:45;;;;;;;0.00;0.00;;;8.40;96.70;;;;;;4996262;28;89066;-77
2023/01/09 03:45:11;;;;;;;1.38;0.00;;;8.40;96.70;;;;;;4995365;28;88294;-77
2023/01/09 03:47:37;;;;;;;0.08;0.00;;;8.30;97.10;;;;;;4996308;28;87357;-78
2023/01/09 03:50:03;;;;;;;0.20;0.00;;;8.40;97.20;;;;;;4984922;28;87351;-77
2023/01/09 03:52:29;;;;;;;0.80;0.20;;;8.40;97.10;;;;;;4997385;28;87285;-77
2023/01/09 03:54:55;;;;;;;3.00;0.93;;;8.40;97.60;;;;;;4996302;28;88222;-78
2023/01/09 03:57:20;;;;;;;5.85;2.40;;;8.40;97.60;;;;;;5001759;28;88321;-77
2023/01/09 03:59:46;;;;;;;5.70;2.85;;;8.40;97.70;;;;;;4996476;28;86752;-77
2023/01/09 04:02:12;;;;;;;7.53;3.75;;;8.30;98.00;;;;;;4997090;28;87742;-77
2023/01/09 04:04:37;;;;;;;8.27;3.80;;;8.20;97.70;;;;;;4997537;28;87963;-78
2023/01/09 04:07:03;;;;;;;6.07;2.20;;;8.20;97.90;;;;;;4993562;28;88044;-75
2023/01/09 04:09:29;;;;;;;2.72;0.50;;;8.10;97.70;;;;;;4996601;28;87418;-77
2023/01/09 04:11:54;;;;;;;2.58;0.80;;;8.00;97.00;;;;;;4996922;28;87675;-75
2023/01/09 04:14:20;;;;;;;1.08;0.20;;;8.00;96.90;;;;;;4998126;28;87596;-77
2023/01/09 04:16:46;;;;;;;2.00;0.32;;;7.90;95.80;;;;;;4996269;28;87025;-75
2023/01/09 04:19:11;;;;;;;2.42;0.20;;;7.90;94.60;;;;;;4992142;28;87585;-78
2023/01/09 04:21:37;;;;;;;1.45;0.30;;;7.80;94.80;;;;;;4995945;28;88245;-78
2023/01/09 04:24:03;;;;;;;1.75;0.38;;;7.80;95.70;;;;;;4996931;28;87735;-75
2023/01/09 04:26:28;;;;;;;0.80;0.10;;;7.70;95.90;;;;;;4994504;28;87365;-77
2023/01/09 04:28:54;;;;;;;0.28;0.00;;;7.60;95.70;;;;;;4991023;28;87908;-74
2023/01/09 04:31:20;;;;;;;0.68;0.00;;;7.60;93.80;;;;;;4990455;28;88441;-77
2023/01/09 04:33:46;;;;;;;0.10;0.00;;;7.60;94.20;;;;;;4986104;28;89242;-77
2023/01/09 04:36:11;;;;;;;0.40;0.00;;;7.60;94.50;;;;;;4985952;28;87463;-77
2023/01/09 04:38:37;;;;;;;0.52;0.00;;;7.50;94.60;;;;;;4996798;28;87754;-76
2023/01/09 04:41:03;;;;;;;0.20;0.00;;;7.50;94.40;;;;;;4996669;28;87803;-75
2023/01/09 04:43:28;;;;;;;0.10;0.00;;;7.40;93.80;;;;;;4994152;28;88315;-75
2023/01/09 04:45:54;;;;;;;0.45;0.00;;;7.40;94.20;;;;;;4995003;28;87444;-76
2023/01/09 04:48:20;;;;;;;0.63;0.00;;;7.40;94.40;;;;;;5008281;28;86662;-76
2023/01/09 04:50:45;;;;;;;0.00;0.00;;;7.30;94.40;;;;;;4991247;28;89341;-75
2023/01/09 04:53:11;;;;;;;0.08;0.00;;;7.40;94.20;;;;;;4989808;28;89222;-76
2023/01/09 04:55:37;;;;;;;0.03;0.00;;;7.40;93.70;;;;;;4989455;28;88447;-75
2023/01/09 04:58:02;;;;;;;0.55;0.00;;;7.40;93.90;;;;;;4997918;28;87427;-75
2023/01/09 05:00:28;;;;;;;0.52;0.00;;;7.40;93.70;;;;;;5000104;28;87854;-74
2023/01/09 05:02:54;;;;;;;0.10;0.00;;;7.40;93.90;;;;;;4999793;28;87508;-74
2023/01/09 05:05:19;;;;;;;0.00;0.00;;;7.40;92.40;;;;;;5007102;28;87470;-73
2023/01/09 05:07:45;;;;;;;1.00;0.00;;;7.50;92.50;;;;;;4995105;28;87872;-76
2023/01/09 05:10:11;;;;;;;0.10;0.00;;;7.50;92.20;;;;;;4997810;28;87694;-76
2023/01/09 05:12:38;;;;;;;0.10;0.00;;;7.50;92.60;;;;;;5000137;28;87354;-81
2023/01/09 05:15:05;;;;;;;0.00;0.00;;;7.50;91.40;;;;;;4999728;28;87459;-79
2023/01/09 05:17:31;;;;;;;0.30;0.00;;;7.60;91.30;;;;;;4998189;28;87350;-74
2023/01/09 05:19:57;;;;;;;0.32;0.00;;;7.60;91.90;;;;;;4996558;28;89796;-76
2023/01/09 05:22:22;;;;;;;0.10;0.00;;;7.60;91.90;;;;;;5000127;28;88853;-77
2023/01/09 05:24:48;;;;;;;0.00;0.00;;;7.70;91.90;;;;;;5000096;28;87560;-80
2023/01/09 05:27:14;;;;;;;1.23;0.00;;;7.60;91.20;;;;;;4998444;28;87408;-77
2023/01/09 05:29:39;;;;;;;0.20;0.00;;;7.60;92.00;;;;;;4996847;28;88204;-78
2023/01/09 05:32:05;;;;;;;0.60;0.00;;;7.60;92.10;;;;;;4989159;28;88400;-77
2023/01/09 05:34:31;;;;;;;0.25;0.00;;;7.60;92.20;;;;;;4987998;28;87468;-74
2023/01/09 05:36:56;;;;;;;0.20;0.00;;;7.60;92.00;;;;;;4998897;28;86758;-77
2023/01/09 05:39:22;;;;;;;0.00;0.00;;;7.60;91.90;;;;;;4991636;28;88178;-76
2023/01/09 05:41:48;;;;;;;1.35;0.00;;;7.70;92.00;;;;;;4997954;28;87825;-76
2023/01/09 05:44:13;;;;;;;0.10;0.00;;;7.70;91.30;;;;;;4992547;28;89811;-76
2023/01/09 05:46:39;;;;;;;0.00;0.00;;;7.70;91.60;;;;;;4988368;28;89100;-75
2023/01/09 05:49:05;;;;;;;0.40;0.00;;;7.70;92.00;;;;;;4990009;28;89284;-76
2023/01/09 05:51:30;;;;;;;0.70;0.00;;;7.70;91.50;;;;;;4999104;28;87309;-76
2023/01/09 05:53:57;;;;;;;0.68;0.00;;;7.60;91.30;;;;;;4997009;28;87577;-76
2023/01/09 05:56:23;;;;;;;1.17;0.00;;;7.60;91.20;;;;;;5002721;28;87411;-79
2023/01/09 05:58:49;;;;;;;0.10;0.00;;;7.60;91.10;;;;;;4993476;28;88929;-78
2023/01/09 06:01:14;;;;;;;2.20;0.00;;;7.50;90.50;;;;;;4996941;28;87667;-78
2023/01/09 06:03:40;;;;;;;0.00;0.00;;;7.60;89.70;;;;;;4995010;28;87223;-77
2023/01/09 06:06:06;;;;;;;0.05;0.00;;;7.60;90.20;;;;;;4997511;28;87171;-77
2023/01/09 06:08:32;;;;;;;0.13;0.00;;;7.60;89.10;;;;;;4993942;28;89558;-75
2023/01/09 06:10:57;;;;;;;1.33;0.00;;;7.50;87.00;;;;;;4996428;28;88575;-76
2023/01/09 06:13:23;;;;;;;0.52;0.00;;;7.40;84.30;;;;;;5003042;28;87171;-77
2023/01/09 06:15:48;;;;;;;0.60;0.00;;;7.40;83.90;;;;;;4994271;28;87599;-77
2023/01/09 06:18:15;;;;;;;2.53;0.00;;;7.40;84.60;;;;;;4990856;28;88007;-77
2023/01/09 06:20:40;;;;;;;1.75;0.00;;;7.30;84.80;;;;;;4997008;28;87806;-76
2023/01/09 06:23:06;;;;;;;0.65;0.00;;;7.30;87.30;;;;;;4998606;28;87369;-77
2023/01/09 06:25:32;;;;;;;4.97;0.00;;;7.40;85.80;;;;;;4999494;28;86643;-76
2023/01/09 06:27:57;;;;;;;0.10;0.00;;;7.40;89.40;;;;;;4996497;28;88140;-75
2023/01/09 06:30:23;;;;;;;0.10;0.00;;;7.40;86.20;;;;;;4994484;28;87619;-78
2023/01/09 06:32:49;;;;;;;3.20;0.10;;;7.40;85.70;;;;;;4993110;28;88664;-77
2023/01/09 06:35:19;;;;;;;0.70;0.10;;;7.40;86.30;;;;;;4996437;28;87415;-76
2023/01/09 06:37:48;;;;;;;1.27;0.10;;;7.40;87.60;;;;;;4991991;28;90533;-75
2023/01/09 06:40:15;;;;;;;0.60;0.00;;;7.30;86.30;;;;;;4994119;28;88138;-76
2023/01/09 06:42:45;;;;;;;0.57;0.08;;;7.30;86.50;;;;;;4992926;28;89242;-78
2023/01/09 06:45:11;;;;;;;0.50;0.10;;;7.20;87.40;;;;;;4997447;28;87939;-77
2023/01/09 06:47:37;;;;;;;0.30;0.00;;;7.20;87.90;;;;;;4998677;28;87653;-75
2023/01/09 06:50:03;;;;;;;0.17;0.00;;;7.10;88.40;;;;;;4995852;28;88370;-78
2023/01/09 06:52:28;;;;;;;1.48;0.00;;;7.10;89.10;;;;;;4996793;28;87140;-76
2023/01/09 06:54:54;;;;;;;0.90;0.00;;;7.00;89.60;;;;;;4989443;28;87693;-77
2023/01/09 06:57:19;;;;;;;1.63;0.00;;;7.00;90.00;;;;;;4991963;28;89951;-76
2023/01/09 06:59:45;;;;;;;0.35;0.00;;;6.90;90.00;;;;;;4995550;28;88263;-76
2023/01/09 07:02:20;;;;;;;1.58;0.03;;;6.90;90.00;;;;;;4993138;28;87613;-77
2023/01/09 07:04:46;;;;;;;0.25;0.00;;;6.90;90.20;;;;;;4995604;28;87655;-77
2023/01/09 07:07:12;;;;;;;0.77;0.00;;;6.90;90.10;;;;;;4996954;28;88061;-75
2023/01/09 07:09:38;;;;;;;0.85;0.00;;;6.80;90.30;;;;;;4993355;28;87763;-76
2023/01/09 07:12:04;;;;;;;2.15;0.10;;;6.80;90.70;;;;;;4996028;28;87414;-77
2023/01/09 07:14:30;;;;;;;2.55;0.57;;;6.80;90.90;;;;;;4992320;28;87373;-76
2023/01/09 07:16:56;;;;;;;1.38;0.20;;;6.80;91.00;;;;;;4992581;28;87326;-76
2023/01/09 07:19:21;;;;;;;2.33;0.10;;;6.80;91.10;;;;;;4991500;28;87767;-75
2023/01/09 07:21:47;;;;;;;1.40;0.10;;;6.70;91.40;;;;;;5000323;28;88434;-75
2023/01/09 07:24:13;;;;;;;1.00;0.10;;;6.70;91.50;;;;;;4998079;28;87220;-74
2023/01/09 07:26:38;;;;;;;2.35;0.10;;;6.60;91.70;;;;;;4996059;28;87942;-76
2023/01/09 07:29:04;;;;;;;1.13;0.22;;;6.60;91.80;;;;;;4995137;28;87831;-75
2023/01/09 07:31:30;;;;;;;2.55;0.15;;;6.60;92.00;;;;;;4996228;28;87355;-75
2023/01/09 07:33:56;;;;;;;1.65;0.10;;;6.50;92.10;;;;;;4992085;28;87416;-75
2023/01/09 07:36:22;;;;;;;0.25;0.00;;;6.50;91.80;;;;;;4991280;28;88076;-75
2023/01/09 07:38:47;;;;;;;1.02;0.20;;;6.50;90.90;;;;;;4995308;28;87362;-74
2023/01/09 07:41:13;;;;;;;0.65;0.00;;;6.60;90.00;;;;;;4996068;28;87503;-76
2023/01/09 07:43:39;;;;;;;0.30;0.00;;;6.60;86.90;;;;;;4995122;28;87458;-74
2023/01/09 07:46:05;;;;;;;0.30;0.00;;;6.80;87.70;;;;;;4982953;28;88582;-76
2023/01/09 07:48:31;;;;;;;1.85;0.00;;;6.80;84.40;;;;;;4994508;28;89198;-76
2023/01/09 07:50:57;;;;;;;1.13;0.10;;;6.90;84.20;;;;;;4992786;28;87588;-74
2023/01/09 07:53:22;;;;;;;0.90;0.00;;;7.00;83.00;;;;;;4985421;28;87619;-77
2023/01/09 07:55:48;;;;;;;0.47;0.00;;;7.10;83.60;;;;;;4995682;28;87759;-75
2023/01/09 07:58:14;;;;;;;1.00;0.00;;;7.20;84.30;;;;;;4984298;28;90198;-75
2023/01/09 08:00:39;;;;;;;1.60;0.10;;;7.20;84.10;;;;;;4996847;28;87340;-74
2023/01/09 08:03:05;;;;;;;2.55;0.10;;;7.30;86.50;;;;;;4995621;28;87245;-74
2023/01/09 08:05:31;;;;;;;4.90;0.50;;;7.20;86.90;;;;;;4991077;28;87634;-75
2023/01/09 08:07:56;;;;;;;7.47;2.60;;;7.30;87.80;;;;;;4985955;28;88331;-74
2023/01/09 08:10:22;;;;;;;2.60;0.30;;;7.30;86.40;;;;;;4993998;28;88235;-75
2023/01/09 08:12:48;;;;;;;7.03;1.15;;;7.40;86.90;;;;;;4995781;28;88129;-75
2023/01/09 08:15:15;;;;;;;1.92;0.30;;;7.40;86.10;;;;;;4994585;28;88619;-76
2023/01/09 08:17:42;;;;;;;2.08;0.45;;;7.40;86.60;;;;;;4994632;28;87846;-77
2023/01/09 08:20:10;;;;;;;2.55;0.20;;;7.40;85.80;;;;;;4994935;28;88698;-75
2023/01/09 08:22:36;;;;;;;5.32;1.50;;;7.50;86.40;;;;;;4998057;28;87022;-75
2023/01/09 08:25:02;;;;;;;2.22;0.20;;;7.60;85.10;;;;;;4998491;28;88044;-77
2023/01/09 08:27:27;;;;;;;10.18;4.50;;;7.70;83.90;;;;;;4997084;28;87281;-74
2023/01/09 08:29:53;;;;;;;5.72;1.92;;;7.80;82.70;;;;;;4999668;28;87403;-76
2023/01/09 08:32:19;;;;;;;5.60;2.05;;;7.90;83.00;;;;;;4999883;28;87469;-76
2023/01/09 08:34:44;;;;;;;4.40;1.33;;;8.00;81.90;;;;;;4998603;28;88673;-74
2023/01/09 08:37:10;;;;;;;9.50;4.25;;;8.10;78.20;;;;;;5000334;28;88209;-74
2023/01/09 08:39:35;;;;;;;1.83;0.30;;;8.30;77.60;;;;;;5000597;28;87350;-75
2023/01/09 08:47:33;;;;;;;1.92;0.10;;;8.40;76.50;;;;;;4991724;28;88416;-76
2023/01/09 08:49:59;;;;;;;1.52;0.13;;;8.40;77.00;;;;;;5000647;28;87731;-76
2023/01/09 08:52:25;;;;;;;0.82;0.10;;;8.40;78.60;;;;;;4998309;28;86882;-75
2023/01/09 08:54:51;;;;;;;3.67;0.55;;;8.40;78.30;;;;;;4998411;28;87732;-76
2023/01/09 08:57:16;;;;;;;1.38;0.10;;;8.40;76.90;;;;;;4993414;28;88023;-78
2023/01/09 08:59:42;;;;;;;0.52;0.03;;;8.50;79.10;;;;;;4999599;28;88434;-75
2023/01/09 09:02:09;;;;;;;0.30;0.00;;;8.50;75.00;;;;;;4995626;28;89646;-76
2023/01/09 09:04:34;;;;;;;1.58;0.00;;;8.40;75.20;;;;;;4992977;28;88521;-77
2023/01/09 09:07:00;;;;;;;0.65;0.00;;;8.70;74.60;;;;;;4988500;28;87895;-75
2023/01/09 09:09:26;;;;;;;2.97;0.00;;;8.90;71.50;;;;;;4993373;28;87697;-76
2023/01/09 09:11:51;;;;;;;2.83;0.20;;;9.00;71.90;;;;;;4995268;28;87586;-75
2023/01/09 09:17:01;;;;;;;1.90;0.20;;;9.10;73.80;;;;;;4996631;28;87498;-74
2023/01/09 09:19:27;;;;;;;2.50;0.20;;;9.10;73.10;;;;;;4999454;28;87100;-74
2023/01/09 09:21:52;;;;;;;3.58;0.20;;;9.10;72.60;;;;;;4997150;28;87186;-77
2023/01/09 09:24:18;;;;;;;0.68;0.10;;;9.00;74.90;;;;;;4989488;28;89330;-76
2023/01/09 09:26:44;;;;;;;0.77;0.10;;;9.10;73.50;;;;;;4975634;28;88743;-76
2023/01/09 09:29:10;;;;;;;1.00;0.10;;;9.10;73.60;;;;;;4991641;28;87519;-77
2023/01/09 09:31:39;;;;;;;2.47;0.00;;;9.20;73.40;;;;;;4999893;28;87188;-76
2023/01/09 09:34:06;;;;;;;2.30;0.10;;;9.30;71.70;;;;;;4997945;28;87509;-77
2023/01/09 09:36:32;;;;;;;0.70;0.00;;;9.30;71.60;;;;;;4996424;28;87334;-75
2023/01/09 09:38:58;;;;;;;1.85;0.00;;;9.40;71.40;;;;;;4990163;28;87509;-76
2023/01/09 09:44:45;;;;;;;0.40;0.00;;;9.50;71.80;;;;;;4996874;28;87873;-75
2023/01/09 09:47:20;;;;;;;1.45;0.10;;;9.60;73.00;;;;;;4989718;28;89286;-75
2023/01/09 09:49:49;;;;;;;0.40;0.00;;;9.90;72.40;;;;;;4998915;28;89227;-76
2023/01/09 09:52:43;;;;;;;1.15;0.10;;;10.10;68.00;;;;;;4999580;28;87663;-76
2023/01/09 09:55:19;;;;;;;0.65;0.00;;;10.20;68.20;;;;;;5003184;28;87522;-76
2023/01/09 09:57:47;;;;;;;1.60;0.00;;;10.30;67.30;;;;;;4998178;28;88897;-76
2023/01/09 10:00:20;;;;;;;1.55;0.00;;;10.50;66.80;;;;;;4981447;28;87348;-76
2023/01/09 10:02:57;;;;;;;3.13;0.20;;;10.70;65.10;;;;;;4987140;28;88017;-75
2023/01/09 10:05:28;;;;;;;0.70;0.00;;;10.90;64.90;;;;;;4995221;28;87705;-76
2023/01/09 10:07:57;;;;;;;2.53;0.00;;;11.10;64.70;;;;;;4995229;28;87573;-75
2023/01/09 10:10:35;;;;;;;0.45;0.00;;;11.40;64.30;;;;;;4991242;28;87678;-75
2023/01/09 10:14:03;;;;;;;0.77;0.00;;;11.50;63.00;;;;;;4996298;28;87678;-75
2023/01/09 10:16:41;;;;;;;1.13;0.10;;;11.60;63.80;;;;;;4987254;28;89826;-76
2023/01/09 10:19:18;;;;;;;0.63;0.00;;;11.50;64.20;;;;;;4960024;28;88907;-76
2023/01/09 10:21:49;;;;;;;2.40;0.20;;;11.30;61.90;;;;;;4987416;28;87472;-76
2023/01/09 10:24:40;;;;;;;1.02;0.00;;;11.20;62.80;;;;;;4999467;28;87319;-75
2023/01/09 10:27:28;;;;;;;0.52;0.00;;;11.10;63.50;;;;;;4993581;28;88072;-76
2023/01/09 10:29:57;;;;;;;0.70;0.10;;;11.10;63.70;;;;;;4998450;28;87919;-76
2023/01/09 10:33:00;;;;;;;1.20;0.13;;;11.00;63.40;;;;;;4999675;28;87352;-75
2023/01/09 10:35:56;;;;;;;1.27;0.10;;;11.10;64.00;;;;;;4990929;28;88388;-76
2023/01/09 10:38:30;;;;;;;2.88;0.28;;;11.00;63.30;;;;;;4993501;28;87961;-76
2023/01/09 10:41:03;;;;;;;2.85;0.13;;;11.10;65.20;;;;;;4989223;28;87361;-76
2023/01/09 10:43:33;;;;;;;3.63;0.95;;;11.20;65.10;;;;;;4994034;28;87980;-76
2023/01/09 10:46:17;;;;;;;6.00;2.35;;;11.30;65.20;;;;;;5004291;28;86991;-76
2023/01/09 10:48:51;;;;;;;6.72;0.95;;;11.30;64.10;;;;;;4998687;28;87487;-76
2023/01/09 10:51:24;;;;;;;0.80;0.20;;;11.30;65.70;;;;;;4989487;28;87801;-76
2023/01/09 10:53:52;;;;;;;2.05;0.10;;;11.40;63.80;;;;;;4986093;28;89092;-75
2023/01/09 10:56:31;;;;;;;1.80;0.30;;;11.50;62.50;;;;;;4983341;28;88648;-77
2023/01/09 10:58:57;;;;;;;1.10;0.10;;;11.70;62.70;;;;;;4991547;28;88778;-76
2023/01/09 11:01:33;;;;;;;1.83;0.30;;;11.60;61.50;;;;;;4987438;28;87709;-76
2023/01/09 11:04:01;;;;;;;1.30;0.10;;;11.70;62.40;;;;;;4994485;28;87220;-75
2023/01/09 11:06:49;;;;;;;1.95;0.30;;;12.00;61.00;;;;;;4993093;28;87445;-77
2023/01/09 11:09:15;;;;;;;2.08;0.40;;;12.20;62.70;;;;;;4993352;28;89188;-76
2023/01/09 11:11:43;;;;;;;1.85;0.28;;;12.40;62.50;;;;;;4992573;28;87869;-76
2023/01/09 11:14:29;;;;;;;1.15;0.10;;;12.60;61.70;;;;;;4995170;28;87474;-77
2023/01/09 11:17:00;;;;;;;1.48;0.22;;;12.80;61.40;;;;;;4988309;28;89158;-75
2023/01/09 11:19:26;;;;;;;0.90;0.08;;;12.90;59.80;;;;;;4998944;28;87432;-76
2023/01/09 11:22:07;;;;;;;1.45;0.10;;;13.00;59.90;;;;;;4987903;28;88038;-75
2023/01/09 11:24:33;;;;;;;1.17;0.20;;;13.20;57.80;;;;;;4993945;28;87485;-75
2023/01/09 11:27:22;;;;;;;1.00;0.10;;;13.10;58.50;;;;;;4987359;28;87202;-76
2023/01/09 11:30:06;;;;;;;0.98;0.15;;;13.10;58.80;;;;;;4978609;28;87514;-74
2023/01/09 11:32:34;;;;;;;2.47;0.10;;;12.90;57.90;;;;;;4985202;28;88053;-75
2023/01/09 11:35:00;;;;;;;1.52;0.10;;;12.60;58.80;;;;;;4987002;28;88911;-75
2023/01/09 11:37:28;;;;;;;2.03;0.28;;;12.30;58.90;;;;;;4982419;28;87648;-76
2023/01/09 11:39:56;;;;;;;1.42;0.10;;;12.20;61.00;;;;;;4984290;28;88080;-76
2023/01/09 11:45:27;;;;;;;1.27;0.10;;;11.90;59.30;;;;;;4984951;28;88059;-78
2023/01/09 11:47:53;;;;;;;1.98;0.10;;;11.60;60.10;;;;;;4994909;28;87191;-75
2023/01/09 11:50:21;;;;;;;1.05;0.10;;;11.50;61.60;;;;;;4989370;28;88428;-74
2023/01/09 11:53:16;;;;;;;1.55;0.10;;;11.50;61.90;;;;;;4993807;28;88348;-76
2023/01/09 11:55:43;;;;;;;0.82;0.10;;;11.60;60.30;;;;;;4991106;28;87227;-74
2023/01/09 11:58:20;;;;;;;0.70;0.10;;;11.50;61.30;;;;;;4994259;28;87401;-75
2023/01/09 12:01:23;;;;;;;0.60;0.10;;;11.50;61.10;;;;;;4990027;28;88826;-77
2023/01/09 12:04:07;;;;;;;0.68;0.10;;;11.40;61.50;;;;;;4978748;28;88453;-74
2023/01/09 12:06:54;;;;;;;1.73;0.30;;;11.40;62.30;;;;;;4986202;28;87634;-74
2023/01/09 12:09:48;;;;;;;0.82;0.00;;;11.30;61.40;;;;;;4987385;28;87492;-76
2023/01/09 12:12:28;;;;;;;0.60;0.10;;;11.30;63.00;;;;;;4968703;28;88320;-76
2023/01/09 12:14:56;;;;;;;1.77;0.10;;;11.50;62.70;;;;;;4997134;28;87595;-76
2023/01/09 12:17:41;;;;;;;0.95;0.10;;;11.60;63.10;;;;;;4997311;28;87334;-75
2023/01/09 12:20:30;;;;;;;3.33;0.13;;;11.70;61.40;;;;;;4998448;28;86462;-76
2023/01/09 12:23:27;;;;;;;1.55;0.10;;;11.80;62.40;;;;;;4967687;28;88323;-78
2023/01/09 12:26:05;;;;;;;0.70;0.10;;;11.90;62.10;;;;;;4980045;28;87377;-76
2023/01/09 12:28:38;;;;;;;1.25;0.10;;;11.90;62.80;;;;;;4991185;28;88322;-74
2023/01/09 12:31:35;;;;;;;1.00;0.10;;;11.90;62.90;;;;;;4997649;28;87431;-75
2023/01/09 12:34:41;;;;;;;0.95;0.40;;;11.80;61.80;;;;;;4996993;28;88317;-76
2023/01/09 12:37:41;;;;;;;2.28;0.20;;;11.80;61.90;;;;;;4996896;28;87869;-76
2023/01/09 12:40:22;;;;;;;3.75;0.30;;;11.70;61.70;;;;;;4997486;28;87223;-75
2023/01/09 12:42:56;;;;;;;2.13;0.10;;;11.60;62.40;;;;;;4996278;28;87449;-76
2023/01/09 12:45:46;;;;;;;2.58;0.30;;;11.40;65.80;;;;;;4995472;28;87300;-76
2023/01/09 12:48:20;;;;;;;2.40;0.40;;;11.40;65.80;;;;;;4997152;28;87927;-74
2023/01/09 12:51:25;;;;;;;0.90;0.10;;;11.20;66.30;;;;;;4997253;28;88669;-76
2023/01/09 12:53:56;;;;;;;2.20;0.40;;;11.20;67.00;;;;;;4997454;28;87033;-76
2023/01/09 12:56:36;;;;;;;1.77;0.22;;;11.10;68.90;;;;;;4996626;28;88720;-76
2023/01/09 12:59:29;;;;;;;0.98;0.10;;;11.00;69.00;;;;;;4996649;28;88758;-76
2023/01/09 13:02:39;;;;;;;0.80;0.10;;;10.80;70.90;;;;;;4997466;28;87482;-76
2023/01/09 13:05:22;;;;;;;0.68;0.00;;;10.60;69.10;;;;;;4934685;28;87014;-76
2023/01/09 13:07:55;;;;;;;0.55;0.08;;;10.40;69.70;;;;;;4987609;28;87255;-76
2023/01/09 13:10:38;;;;;;;1.50;0.10;;;10.30;69.30;;;;;;5000058;28;87917;-76
2023/01/09 13:13:32;;;;;;;1.23;0.35;;;10.30;70.30;;;;;;4989026;28;87451;-76
2023/01/09 13:16:03;;;;;;;0.52;0.10;;;10.30;70.00;;;;;;4966316;28;86353;-75
2023/01/09 13:18:46;;;;;;;0.65;0.10;;;10.30;69.80;;;;;;5000458;28;88144;-76
2023/01/09 13:21:13;;;;;;;2.05;0.00;;;10.20;69.40;;;;;;5000143;28;87839;-76
2023/01/09 13:24:13;;;;;;;0.85;0.10;;;10.10;69.70;;;;;;4999291;28;88247;-76
2023/01/09 13:26:45;;;;;;;3.28;0.25;;;9.90;72.30;;;;;;4983196;28;89525;-76
2023/01/09 13:29:22;;;;;;;0.80;0.00;;;9.70;71.30;;;;;;4986514;28;88203;-77
2023/01/09 13:32:18;;;;;;;1.77;0.28;;;9.60;74.70;;;;;;4998037;28;88496;-77